createdAt,value
2023-01-20T00:02:11.286Z,99417.38
2023-01-20T00:07:14.106Z,99420.81
2023-01-20T00:12:16.696Z,99422.59
2023-01-20T00:17:19.175Z,99423.34
2023-01-20T00:22:22.497Z,99421.66
2023-01-20T00:27:25.118Z,99402.09
2023-01-20T00:32:27.808Z,99417.41
2023-01-20T00:37:30.326Z,99420.09
2023-01-20T00:42:32.918Z,99348.00
2023-01-20T00:47:35.675Z,99413.34
2023-01-20T00:52:38.227Z,99412.53
2023-01-20T00:57:41.014Z,99422.78
2023-01-20T01:02:43.553Z,99424.38
2023-01-20T01:07:46.148Z,99421.88
2023-01-20T01:12:48.661Z,99404.00
2023-01-20T01:17:52.451Z,99408.41
2023-01-20T01:22:56.306Z,99414.38
2023-01-20T01:27:58.837Z,99416.91
2023-01-20T01:33:01.547Z,99412.63
2023-01-20T01:38:04.095Z,99407.38
2023-01-20T01:43:23.372Z,99411.84
2023-01-20T01:48:40.341Z,99409.28
2023-01-20T01:53:54.033Z,99414.38
2023-01-20T01:59:00.143Z,99417.69
2023-01-20T02:04:11.531Z,99409.19
2023-01-20T02:09:14.489Z,99380.78
2023-01-20T02:14:19.382Z,99405.81
2023-01-20T02:19:37.031Z,99410.13
2023-01-20T02:25:13.443Z,99397.22
2023-01-20T02:30:25.157Z,99406.69
2023-01-20T02:35:45.991Z,99417.00
2023-01-20T02:40:48.473Z,99428.19
2023-01-20T02:46:06.306Z,99425.63
2023-01-20T02:51:18.356Z,99415.25
2023-01-20T02:56:37.180Z,99441.06
2023-01-20T03:02:02.680Z,99449.59
2023-01-20T03:07:07.318Z,99455.38
2023-01-20T03:12:17.048Z,99459.00
2023-01-20T03:17:20.840Z,99448.63
2023-01-20T03:22:23.721Z,99458.84
2023-01-20T03:27:26.918Z,99475.97
2023-01-20T03:32:30.036Z,99480.19
2023-01-20T03:37:32.698Z,99470.81
2023-01-20T03:42:46.282Z,99447.78
2023-01-20T03:47:58.748Z,99483.88
2023-01-20T03:53:15.396Z,99475.31
2023-01-20T03:58:40.962Z,99481.31
2023-01-20T04:03:46.168Z,99484.69
2023-01-20T04:08:57.068Z,99489.00
2023-01-20T04:14:00.045Z,99492.28
2023-01-20T04:19:02.797Z,99497.59
2023-01-20T04:24:34.800Z,99493.22
2023-01-20T04:29:37.509Z,99507.84
2023-01-20T04:34:40.258Z,99509.50
2023-01-20T04:39:43.038Z,99513.69
2023-01-20T04:44:46.313Z,99517.09
2023-01-20T04:49:49.003Z,99538.59
2023-01-20T04:54:51.588Z,99523.22
2023-01-20T04:59:54.141Z,99529.28
2023-01-20T05:04:56.771Z,99525.78
2023-01-20T05:09:59.437Z,99526.63
2023-01-20T05:15:02.201Z,99524.22
2023-01-20T05:20:05.979Z,99501.75
2023-01-20T05:25:09.177Z,99534.41
2023-01-20T05:30:12.090Z,99537.81
2023-01-20T05:35:14.995Z,99544.66
2023-01-20T05:40:18.461Z,99534.41
2023-01-20T05:45:21.031Z,99525.06
2023-01-20T05:50:24.262Z,99517.31
2023-01-20T05:55:27.185Z,99530.13
2023-01-20T06:00:30.429Z,99535.38
2023-01-20T06:05:33.497Z,99531.13
2023-01-20T06:10:36.055Z,99538.78
2023-01-20T06:15:38.598Z,99551.63
2023-01-20T06:20:41.170Z,99565.34
2023-01-20T06:25:44.111Z,99563.63
2023-01-20T06:30:46.648Z,99561.88
2023-01-20T06:35:49.359Z,99569.81
2023-01-20T06:40:59.677Z,99591.97
2023-01-20T06:46:04.283Z,99589.53
2023-01-20T06:51:17.073Z,99597.03
2023-01-20T06:56:20.126Z,99624.44
2023-01-20T07:01:31.417Z,99622.59
2023-01-20T07:06:38.591Z,99624.38
2023-01-20T07:11:41.526Z,99601.00
2023-01-20T07:16:44.234Z,99627.84
2023-01-20T07:21:46.922Z,99644.03
2023-01-20T07:26:52.762Z,99633.84
2023-01-20T07:31:55.561Z,99628.78
2023-01-20T07:36:58.165Z,99609.91
2023-01-20T07:42:00.668Z,99638.13
2023-01-20T07:47:03.332Z,99626.22
2023-01-20T07:52:05.885Z,99625.50
2023-01-20T07:57:09.325Z,99618.78
2023-01-20T08:02:11.890Z,99595.47
2023-01-20T08:07:14.417Z,99620.53
2023-01-20T08:12:17.090Z,99631.59
2023-01-20T08:17:19.708Z,99618.91
2023-01-20T08:22:22.277Z,99619.59
2023-01-20T08:27:24.849Z,99630.94
2023-01-20T08:32:27.447Z,99629.97
2023-01-20T08:37:30.022Z,99654.81
2023-01-20T08:42:32.615Z,99668.63
2023-01-20T08:47:44.519Z,99671.34
2023-01-20T08:52:47.494Z,99678.19
2023-01-20T08:57:50.047Z,99652.47
2023-01-20T09:02:52.929Z,99668.94
2023-01-20T09:07:55.554Z,99682.56
2023-01-20T09:12:58.122Z,99679.28
2023-01-20T09:18:00.753Z,99689.66
2023-01-20T09:23:03.474Z,99693.09
2023-01-20T09:28:06.714Z,99699.97
2023-01-20T09:33:13.995Z,99702.63
2023-01-20T09:38:35.430Z,99701.78
2023-01-20T09:43:57.066Z,99723.16
2023-01-20T09:49:39.144Z,99724.97
2023-01-20T09:54:50.496Z,99728.34
2023-01-20T10:00:09.526Z,99726.69
2023-01-20T10:05:16.817Z,99704.16
2023-01-20T10:10:32.891Z,99698.41
2023-01-20T10:15:37.779Z,99711.50
2023-01-20T10:20:49.304Z,99709.09
2023-01-20T10:26:00.805Z,99692.81
2023-01-20T10:31:05.410Z,99696.19
2023-01-20T10:36:21.443Z,99703.09
2023-01-20T10:41:32.366Z,99723.75
2023-01-20T10:46:47.055Z,99715.28
2023-01-20T10:52:09.992Z,99722.94
2023-01-20T10:57:15.432Z,99686.75
2023-01-20T11:02:30.699Z,99713.59
2023-01-20T11:07:34.278Z,99684.16
2023-01-20T11:12:40.884Z,99733.03
2023-01-20T11:17:43.572Z,99714.88
2023-01-20T11:22:48.951Z,99710.66
2023-01-20T11:27:52.391Z,99714.81
2023-01-20T11:33:10.242Z,99719.91
2023-01-20T11:38:31.161Z,99725.97
2023-01-20T11:43:38.157Z,99693.38
2023-01-20T11:48:40.839Z,99725.88
2023-01-20T11:53:45.745Z,99730.13
2023-01-20T11:58:59.855Z,99760.94
2023-01-20T12:04:17.687Z,99757.41
2023-01-20T12:09:25.843Z,99760.69
2023-01-20T12:14:42.757Z,99781.13
2023-01-20T12:19:51.325Z,99782.94
2023-01-20T12:25:07.907Z,99765.03
2023-01-20T12:30:43.325Z,99779.50
2023-01-20T12:36:14.695Z,99779.63
2023-01-20T12:41:45.451Z,99794.13
2023-01-20T12:46:51.929Z,99806.13
2023-01-20T12:52:31.235Z,99789.91
2023-01-20T12:58:00.118Z,99795.94
2023-01-20T13:03:27.542Z,99803.59
2023-01-20T13:08:39.926Z,99808.72
2023-01-20T13:13:57.348Z,99818.03
2023-01-20T13:19:14.595Z,99824.91
2023-01-20T13:24:24.410Z,99824.78
2023-01-20T13:29:36.026Z,99824.81
2023-01-20T13:34:40.149Z,99781.50
2023-01-20T13:39:45.651Z,99825.28
2023-01-20T13:45:21.030Z,99818.44
2023-01-20T13:50:26.514Z,99821.63
2023-01-20T13:55:40.903Z,99826.69
2023-01-20T14:00:44.568Z,99807.81
2023-01-20T14:05:55.617Z,99799.88
2023-01-20T14:11:41.174Z,99835.16
2023-01-20T14:16:44.525Z,99842.81
2023-01-20T14:21:53.238Z,99866.03
2023-01-20T14:27:27.168Z,99865.28
2023-01-20T14:32:33.993Z,99861.22
2023-01-20T14:37:38.616Z,99877.50
2023-01-20T14:42:41.189Z,99875.75
2023-01-20T14:47:43.783Z,99879.00
2023-01-20T14:52:46.561Z,99867.38
2023-01-20T14:57:49.196Z,99884.22
2023-01-20T15:03:10.174Z,99817.59
2023-01-20T15:08:18.993Z,99903.00
2023-01-20T15:13:31.211Z,99925.09
2023-01-20T15:18:34.100Z,99939.38
2023-01-20T15:23:38.405Z,99935.13
2023-01-20T15:28:44.932Z,99920.88
2023-01-20T15:33:47.751Z,99940.00
2023-01-20T15:38:50.841Z,99952.94
2023-01-20T15:43:53.420Z,99963.09
2023-01-20T15:48:56.168Z,99965.41
2023-01-20T15:53:59.100Z,99970.66
2023-01-20T15:59:02.788Z,99967.41
2023-01-20T16:04:05.483Z,99979.41
2023-01-20T16:09:30.513Z,99979.59
2023-01-20T16:14:33.560Z,99990.59
2023-01-20T16:19:36.500Z,99998.22
2023-01-20T16:24:39.851Z,100003.47
2023-01-20T16:29:42.511Z,100011.22
2023-01-20T16:34:46.179Z,99990.75
2023-01-20T16:39:48.779Z,100030.22
2023-01-20T16:44:52.796Z,100028.06
2023-01-20T16:49:55.345Z,100028.00
2023-01-20T16:54:58.040Z,100033.22
2023-01-20T17:00:00.649Z,100027.13
2023-01-20T17:05:03.360Z,100040.19
2023-01-20T17:10:06.570Z,100064.09
2023-01-20T17:15:09.997Z,100058.13
2023-01-20T17:20:12.764Z,100047.81
2023-01-20T17:25:17.933Z,100054.34
2023-01-20T17:30:20.739Z,100074.22
2023-01-20T17:35:23.367Z,100076.63
2023-01-20T17:40:25.999Z,100034.38
2023-01-20T17:45:30.726Z,100060.34
2023-01-20T17:50:39.794Z,100080.94
2023-01-20T17:55:43.235Z,100088.00
2023-01-20T18:00:45.872Z,100097.31
2023-01-20T18:05:48.449Z,100092.97
2023-01-20T18:10:50.987Z,100111.72
2023-01-20T18:15:53.658Z,100110.84
2023-01-20T18:20:56.229Z,100108.25
2023-01-20T18:25:58.859Z,100127.31
2023-01-20T18:31:08.506Z,100119.53
2023-01-20T18:36:14.787Z,100121.41
2023-01-20T18:41:17.693Z,100128.28
2023-01-20T18:46:20.554Z,100147.66
2023-01-20T18:51:25.962Z,100144.31
2023-01-20T18:56:29.974Z,100159.66
2023-01-20T19:01:36.213Z,100124.84
2023-01-20T19:06:42.034Z,100174.00
2023-01-20T19:11:44.638Z,100160.28
2023-01-20T19:16:49.515Z,100185.53
2023-01-20T19:21:52.693Z,100189.56
2023-01-20T19:26:55.368Z,100205.19
2023-01-20T19:31:58.011Z,100202.63
2023-01-20T19:37:00.760Z,100194.69
2023-01-20T19:42:03.397Z,100240.28
2023-01-20T19:47:05.945Z,100242.47
2023-01-20T19:52:08.496Z,100254.59
2023-01-20T19:57:11.083Z,100232.44
2023-01-20T20:02:13.646Z,100265.41
2023-01-20T20:07:16.220Z,100257.38
2023-01-20T20:12:18.799Z,100258.66
2023-01-20T20:17:21.448Z,100247.78
2023-01-20T20:22:24.158Z,100228.44
2023-01-20T20:27:34.386Z,100281.69
2023-01-20T20:32:37.088Z,100282.06
2023-01-20T20:37:39.871Z,100278.78
2023-01-20T20:42:43.139Z,100305.66
2023-01-20T20:47:45.711Z,100312.97
2023-01-20T20:52:48.309Z,100311.19
2023-01-20T20:57:51.171Z,100312.38
2023-01-20T21:02:55.389Z,100330.06
2023-01-20T21:07:58.015Z,100327.50
2023-01-20T21:13:00.569Z,100348.13
2023-01-20T21:18:04.139Z,100354.19
2023-01-20T21:23:06.751Z,100364.19
2023-01-20T21:28:10.034Z,100372.72
2023-01-20T21:33:17.695Z,100380.75
2023-01-20T21:38:20.354Z,100376.34
2023-01-20T21:43:41.325Z,100396.00
2023-01-20T21:49:02.501Z,100394.44
2023-01-20T21:54:05.133Z,100387.03
2023-01-20T21:59:07.962Z,100414.25
2023-01-20T22:04:10.818Z,100411.66
2023-01-20T22:09:13.467Z,100412.63
2023-01-20T22:14:16.089Z,100421.38
2023-01-20T22:19:18.649Z,100433.44
2023-01-20T22:24:21.562Z,100432.31
2023-01-20T22:29:24.688Z,100444.06
2023-01-20T22:34:29.233Z,100450.34
2023-01-20T22:39:31.791Z,100452.19
2023-01-20T22:44:34.301Z,100464.84
2023-01-20T22:49:36.957Z,100445.13
2023-01-20T22:54:39.474Z,100456.34
2023-01-20T22:59:42.174Z,100476.09
2023-01-20T23:04:44.781Z,100483.47
2023-01-20T23:09:47.345Z,100476.28
2023-01-20T23:14:59.069Z,100428.59
2023-01-20T23:20:01.634Z,100479.56
2023-01-20T23:25:08.564Z,100467.59
2023-01-20T23:30:11.562Z,100486.19
2023-01-20T23:35:14.291Z,100483.94
2023-01-20T23:40:18.577Z,100493.00
2023-01-20T23:45:21.391Z,100514.31
2023-01-20T23:50:23.957Z,100523.41
2023-01-20T23:55:26.528Z,100538.78
